createdAt,value
2019-05-21T00:00:12.885Z,10.9
2019-05-21T00:15:02.906Z,10.9
2019-05-21T00:30:02.943Z,10.9
2019-05-21T00:45:03.837Z,10.8
2019-05-21T01:00:03.985Z,10.7
2019-05-21T01:15:04.171Z,10.7
2019-05-21T01:30:04.270Z,10.7
2019-05-21T01:45:04.459Z,10.7
2019-05-21T02:00:04.538Z,10.6
2019-05-21T02:15:04.567Z,10.5
2019-05-21T02:30:10.217Z,10.5
2019-05-21T02:45:03.545Z,10.4
2019-05-21T03:00:03.586Z,10.4
2019-05-21T03:15:03.615Z,10.3
2019-05-21T03:30:03.621Z,10.2
2019-05-21T03:45:08.131Z,10.2
2019-05-21T04:00:03.980Z,10.2
2019-05-21T04:15:04.116Z,10.1
2019-05-21T04:30:04.023Z,10.1
2019-05-21T04:45:04.094Z,10.2
2019-05-21T05:00:04.195Z,10.2
2019-05-21T05:15:04.194Z,10.1
2019-05-21T05:30:04.225Z,10.1
2019-05-21T05:45:04.472Z,10.2
2019-05-21T06:00:04.285Z,10.1
2019-05-21T06:15:05.021Z,10.2
2019-05-21T06:30:04.394Z,10.1
2019-05-21T06:45:05.146Z,10.1
2019-05-21T07:00:05.042Z,10.2
2019-05-21T07:15:05.443Z,10.2
2019-05-21T07:30:05.079Z,10.2
2019-05-21T07:45:05.534Z,10.3
2019-05-21T08:00:05.082Z,10.3
2019-05-21T08:15:05.218Z,10.3
2019-05-21T08:30:05.188Z,10.4
2019-05-21T08:45:06.076Z,10.5
2019-05-21T09:00:05.313Z,10.6
2019-05-21T09:15:05.345Z,10.7
2019-05-21T09:30:05.355Z,10.7
2019-05-21T09:45:06.276Z,10.8
2019-05-21T10:00:12.077Z,10.9
2019-05-21T10:15:05.272Z,11.2
2019-05-21T10:30:06.160Z,11.1
2019-05-21T10:45:06.289Z,11.2
2019-05-21T11:00:06.204Z,11.4
2019-05-21T11:15:06.292Z,11.4
2019-05-21T11:30:06.789Z,11.6
2019-05-21T11:45:06.654Z,11.6
2019-05-21T12:00:06.653Z,11.9
2019-05-21T12:15:06.784Z,11.9
2019-05-21T12:30:06.690Z,11.6
2019-05-21T12:45:06.769Z,11.6
2019-05-21T13:00:08.032Z,11.6
2019-05-21T13:15:06.336Z,11.6
2019-05-21T13:30:07.573Z,11.5
2019-05-21T13:45:07.679Z,11.4
2019-05-21T14:00:07.846Z,11.4
2019-05-21T14:15:08.334Z,11.3
2019-05-21T14:30:08.336Z,11.1
2019-05-21T14:45:10.924Z,11.1
2019-05-21T15:00:10.796Z,11.1
2019-05-21T15:15:10.829Z,11
2019-05-21T15:30:10.882Z,11.1
2019-05-21T15:45:11.252Z,11.1
2019-05-21T16:00:11.180Z,11.1
2019-05-21T16:15:11.238Z,11.1
2019-05-21T16:30:11.382Z,11.1
2019-05-21T16:45:10.636Z,10.9
2019-05-21T17:00:11.023Z,10.9
2019-05-21T17:15:04.597Z,10.9
2019-05-21T17:30:12.788Z,10.8
2019-05-21T17:45:09.575Z,10.8
2019-05-21T18:00:08.487Z,10.8
2019-05-21T18:15:07.128Z,10.8
2019-05-21T18:30:08.380Z,10.9
2019-05-21T18:45:08.699Z,10.8
2019-05-21T19:00:09.566Z,10.7
2019-05-21T19:15:10.460Z,10.8
2019-05-21T19:30:12.087Z,10.7
2019-05-21T19:45:03.413Z,10.6
2019-05-21T20:00:03.419Z,10.7
2019-05-21T20:15:11.354Z,10.6
2019-05-21T20:30:13.587Z,10.6
2019-05-21T20:45:04.189Z,10.6
2019-05-21T21:00:08.311Z,10.6
2019-05-21T21:15:09.268Z,10.6
2019-05-21T21:30:09.363Z,10.6
2019-05-21T21:45:09.376Z,10.5
2019-05-21T22:00:09.359Z,10.5
2019-05-21T22:15:09.541Z,10.4
2019-05-21T22:30:12.314Z,10.4
2019-05-21T22:45:12.834Z,10.5
2019-05-21T23:00:13.125Z,10.4
2019-05-21T23:15:25.441Z,10.4
2019-05-21T23:30:11.948Z,10.5
2019-05-21T23:45:02.758Z,10.4
